createdAt,value
2022-10-11T00:01:06.006Z,19.93
2022-10-11T00:03:34.480Z,19.94
2022-10-11T00:06:05.869Z,19.95
2022-10-11T00:08:35.058Z,19.96
2022-10-11T00:11:08.656Z,19.94
2022-10-11T00:13:37.454Z,19.96
2022-10-11T00:16:10.561Z,19.94
2022-10-11T00:18:39.742Z,19.96
2022-10-11T00:21:12.031Z,19.94
2022-10-11T00:23:40.684Z,19.92
2022-10-11T00:26:12.290Z,19.90
2022-10-11T00:28:41.687Z,19.90
2022-10-11T00:31:11.695Z,19.90
2022-10-11T00:33:40.434Z,19.88
2022-10-11T00:36:10.543Z,19.88
2022-10-11T00:38:38.957Z,19.89
2022-10-11T00:41:09.161Z,19.88
2022-10-11T00:43:37.836Z,19.87
2022-10-11T00:46:30.262Z,19.86
2022-10-11T00:49:05.894Z,19.86
2022-10-11T00:51:50.859Z,19.85
2022-10-11T00:54:25.326Z,19.86
2022-10-11T00:57:02.642Z,19.86
2022-10-11T00:59:40.759Z,19.86
2022-10-11T01:02:10.495Z,19.88
2022-10-11T01:04:40.509Z,19.89
2022-10-11T01:07:10.041Z,19.90
2022-10-11T01:09:38.479Z,19.90
2022-10-11T01:12:19.864Z,19.87
2022-10-11T01:15:13.597Z,19.85
2022-10-11T01:17:50.878Z,19.86
2022-10-11T01:20:52.509Z,19.83
2022-10-11T01:24:10.589Z,19.79
2022-10-11T01:27:29.722Z,19.77
2022-10-11T01:30:19.420Z,19.75
2022-10-11T01:32:59.148Z,19.71
2022-10-11T01:35:34.758Z,19.70
2022-10-11T01:38:10.241Z,19.68
2022-10-11T01:40:45.452Z,19.63
2022-10-11T01:43:16.315Z,19.61
2022-10-11T01:45:49.117Z,19.56
2022-10-11T01:48:17.492Z,19.51
2022-10-11T01:50:48.476Z,19.45
2022-10-11T01:53:43.863Z,19.36
2022-10-11T01:56:32.055Z,19.28
2022-10-11T01:59:21.170Z,19.21
2022-10-11T02:01:59.164Z,19.16
2022-10-11T02:04:33.412Z,19.12
2022-10-11T02:07:09.078Z,19.10
2022-10-11T02:09:46.855Z,19.07
2022-10-11T02:12:24.660Z,19.06
2022-10-11T02:14:57.891Z,19.04
2022-10-11T02:17:35.627Z,19.01
2022-10-11T02:20:13.114Z,18.99
2022-10-11T02:22:46.709Z,18.99
2022-10-11T02:25:22.510Z,18.96
2022-10-11T02:27:53.181Z,18.95
2022-10-11T02:30:21.727Z,18.94
2022-10-11T02:32:53.022Z,18.92
2022-10-11T02:35:25.592Z,18.93
2022-10-11T02:38:00.605Z,18.95
2022-10-11T02:40:33.425Z,18.93
2022-10-11T02:43:06.582Z,18.93
2022-10-11T02:45:40.214Z,18.92
2022-10-11T02:48:13.017Z,18.92
2022-10-11T02:50:42.752Z,18.95
2022-10-11T02:53:11.557Z,18.97
2022-10-11T02:55:40.153Z,18.99
2022-10-11T02:58:08.484Z,19.01
2022-10-11T03:00:36.875Z,19.05
2022-10-11T03:03:05.353Z,19.10
2022-10-11T03:05:40.571Z,19.13
2022-10-11T03:08:10.035Z,19.18
2022-10-11T03:10:38.722Z,19.22
2022-10-11T03:13:07.271Z,19.25
2022-10-11T03:15:35.740Z,19.29
2022-10-11T03:18:04.138Z,19.33
2022-10-11T03:20:33.877Z,19.37
2022-10-11T03:23:02.260Z,19.40
2022-10-11T03:25:30.774Z,19.41
2022-10-11T03:27:59.114Z,19.44
2022-10-11T03:30:27.596Z,19.44
2022-10-11T03:32:55.964Z,19.45
2022-10-11T03:35:24.390Z,19.45
2022-10-11T03:37:54.106Z,19.45
2022-10-11T03:40:22.705Z,19.45
2022-10-11T03:42:51.042Z,19.45
2022-10-11T03:45:19.579Z,19.46
2022-10-11T03:47:47.921Z,19.44
2022-10-11T03:50:16.355Z,19.42
2022-10-11T03:52:44.733Z,19.39
2022-10-11T03:55:14.474Z,19.37
2022-10-11T03:57:42.829Z,19.35
2022-10-11T04:00:12.343Z,19.33
2022-10-11T04:02:40.758Z,19.33
2022-10-11T04:05:11.205Z,19.32
2022-10-11T04:07:39.655Z,19.32
2022-10-11T04:10:09.311Z,19.29
2022-10-11T04:12:40.034Z,19.29
2022-10-11T04:15:09.576Z,19.29
2022-10-11T04:17:37.891Z,19.28
2022-10-11T04:20:08.335Z,19.27
2022-10-11T04:22:36.737Z,19.25
2022-10-11T04:25:05.767Z,19.24
2022-10-11T04:27:34.153Z,19.21
2022-10-11T04:30:04.170Z,19.18
2022-10-11T04:32:32.599Z,19.15
2022-10-11T04:35:00.985Z,19.13
2022-10-11T04:37:29.348Z,19.12
2022-10-11T04:39:57.715Z,19.12
2022-10-11T04:42:26.064Z,19.10
2022-10-11T04:44:54.414Z,19.09
2022-10-11T04:47:24.245Z,19.07
2022-10-11T04:49:52.665Z,19.04
2022-10-11T04:52:25.390Z,19.00
2022-10-11T04:54:54.362Z,18.97
2022-10-11T04:57:22.730Z,18.92
2022-10-11T04:59:51.093Z,18.89
2022-10-11T05:02:19.790Z,18.85
2022-10-11T05:04:49.603Z,18.81
2022-10-11T05:07:18.271Z,18.78
2022-10-11T05:09:46.645Z,18.74
2022-10-11T05:12:15.024Z,18.72
2022-10-11T05:14:43.360Z,18.69
2022-10-11T05:17:11.727Z,18.65
2022-10-11T05:19:40.059Z,18.63
2022-10-11T05:22:10.321Z,18.61
2022-10-11T05:24:39.251Z,18.59
2022-10-11T05:27:07.792Z,18.58
2022-10-11T05:29:36.212Z,18.57
2022-10-11T05:32:04.714Z,18.56
2022-10-11T05:34:33.114Z,18.56
2022-10-11T05:37:01.495Z,18.56
2022-10-11T05:39:31.521Z,18.57
2022-10-11T05:41:59.882Z,18.58
2022-10-11T05:44:28.464Z,18.59
2022-10-11T05:46:56.854Z,18.60
2022-10-11T05:49:25.253Z,18.60
2022-10-11T05:51:53.612Z,18.63
2022-10-11T05:54:22.006Z,18.65
2022-10-11T05:56:51.748Z,18.67
2022-10-11T05:59:20.079Z,18.72
2022-10-11T06:01:48.503Z,18.76
2022-10-11T06:04:19.033Z,18.81
2022-10-11T06:06:47.420Z,18.87
2022-10-11T06:09:15.784Z,18.92
2022-10-11T06:11:45.509Z,18.97
2022-10-11T06:14:15.264Z,19.03
2022-10-11T06:16:43.671Z,19.12
2022-10-11T06:19:12.020Z,19.19
2022-10-11T06:21:40.529Z,19.27
2022-10-11T06:24:09.454Z,19.36
2022-10-11T06:26:37.851Z,19.47
2022-10-11T06:29:06.924Z,19.57
2022-10-11T06:31:36.714Z,19.68
2022-10-11T06:34:05.086Z,19.76
2022-10-11T06:36:33.487Z,19.85
2022-10-11T06:39:02.062Z,19.89
2022-10-11T06:41:32.045Z,19.91
2022-10-11T06:44:00.721Z,19.95
2022-10-11T06:46:29.893Z,19.96
2022-10-11T06:48:59.911Z,20.00
2022-10-11T06:51:30.143Z,20.04
2022-10-11T06:54:02.035Z,20.10
2022-10-11T06:56:31.563Z,20.25
2022-10-11T06:59:01.039Z,20.37
2022-10-11T07:01:29.439Z,20.46
2022-10-11T07:04:01.428Z,20.52
2022-10-11T07:06:32.648Z,20.59
2022-10-11T07:09:02.149Z,20.66
2022-10-11T07:11:30.989Z,20.69
2022-10-11T07:14:02.113Z,20.73
2022-10-11T07:16:31.131Z,20.80
2022-10-11T07:19:03.079Z,20.86
2022-10-11T07:21:33.288Z,20.93
2022-10-11T07:24:03.036Z,21.02
2022-10-11T07:26:38.314Z,21.10
2022-10-11T07:29:07.896Z,21.17
2022-10-11T07:31:38.756Z,21.24
2022-10-11T07:34:08.993Z,21.33
2022-10-11T07:36:37.930Z,21.41
2022-10-11T07:39:08.366Z,21.48
2022-10-11T07:41:43.081Z,21.55
2022-10-11T07:44:14.178Z,21.64
2022-10-11T07:46:42.540Z,21.69
2022-10-11T07:49:12.369Z,21.77
2022-10-11T07:51:41.059Z,21.85
2022-10-11T07:54:09.456Z,21.96
2022-10-11T07:56:39.997Z,22.06
2022-10-11T07:59:08.478Z,22.13
2022-10-11T08:01:37.039Z,22.21
2022-10-11T08:04:06.061Z,22.29
2022-10-11T08:06:36.771Z,22.38
2022-10-11T08:09:05.711Z,22.47
2022-10-11T08:11:37.230Z,22.53
2022-10-11T08:14:09.082Z,22.61
2022-10-11T08:16:38.265Z,22.67
2022-10-11T08:19:07.532Z,22.74
2022-10-11T08:21:37.554Z,22.82
2022-10-11T08:24:07.805Z,22.92
2022-10-11T08:26:36.917Z,23.03
2022-10-11T08:29:05.453Z,23.13
2022-10-11T08:31:35.743Z,23.24
2022-10-11T08:34:04.410Z,23.34
2022-10-11T08:36:33.369Z,23.45
2022-10-11T08:39:03.141Z,23.54
2022-10-11T08:41:40.434Z,23.64
2022-10-11T08:44:46.400Z,23.73
2022-10-11T08:47:29.040Z,23.77
2022-10-11T08:49:59.324Z,23.71
2022-10-11T08:52:34.912Z,23.67
2022-10-11T08:55:09.078Z,23.61
2022-10-11T08:57:40.709Z,23.59
2022-10-11T09:00:15.854Z,23.59
2022-10-11T09:03:07.408Z,23.64
2022-10-11T09:05:55.693Z,23.70
2022-10-11T09:08:34.648Z,23.70
2022-10-11T09:11:13.748Z,23.75
2022-10-11T09:14:15.346Z,23.81
2022-10-11T09:17:01.615Z,23.88
2022-10-11T09:19:52.407Z,23.93
2022-10-11T09:22:32.461Z,23.92
2022-10-11T09:25:20.170Z,23.94
2022-10-11T09:28:06.312Z,23.98
2022-10-11T09:30:35.163Z,24.00
2022-10-11T09:33:14.619Z,23.98
2022-10-11T09:35:47.456Z,24.03
2022-10-11T09:38:36.904Z,24.06
2022-10-11T09:41:16.515Z,24.13
2022-10-11T09:43:50.866Z,24.16
2022-10-11T09:46:30.925Z,24.16
2022-10-11T09:49:00.178Z,24.20
2022-10-11T09:51:29.932Z,24.18
2022-10-11T09:54:01.575Z,24.16
2022-10-11T09:56:32.984Z,24.17
2022-10-11T09:59:28.032Z,24.16
2022-10-11T10:02:23.878Z,24.17
2022-10-11T10:05:14.842Z,24.20
2022-10-11T10:08:07.160Z,24.18
2022-10-11T10:10:40.320Z,24.22
2022-10-11T10:13:22.926Z,24.19
2022-10-11T10:15:56.668Z,24.21
2022-10-11T10:18:34.870Z,24.19
2022-10-11T10:21:04.752Z,24.19
2022-10-11T10:23:36.477Z,24.27
2022-10-11T10:26:18.152Z,24.47
2022-10-11T10:29:18.651Z,24.75
2022-10-11T10:34:59.442Z,25.55
2022-10-11T10:37:36.022Z,25.97
2022-10-11T10:40:09.595Z,26.34
2022-10-11T10:42:38.776Z,26.66
2022-10-11T10:45:21.149Z,26.93
2022-10-11T10:48:17.646Z,27.29
2022-10-11T10:50:55.775Z,27.64
2022-10-11T10:53:33.636Z,27.99
2022-10-11T10:56:10.960Z,28.35
2022-10-11T10:59:19.717Z,28.63
2022-10-11T11:01:57.138Z,28.94
2022-10-11T11:04:34.294Z,29.15
2022-10-11T11:07:15.236Z,29.19
2022-10-11T11:09:55.425Z,29.35
2022-10-11T11:12:41.022Z,29.51
2022-10-11T11:15:19.745Z,29.66
2022-10-11T11:18:06.065Z,29.79
2022-10-11T11:20:56.172Z,30.04
2022-10-11T11:23:34.514Z,30.36
2022-10-11T11:26:12.102Z,30.65
2022-10-11T11:28:56.972Z,30.86
2022-10-11T11:31:46.139Z,31.12
2022-10-11T11:34:23.142Z,31.33
2022-10-11T11:36:59.070Z,31.49
2022-10-11T11:39:33.553Z,31.70
2022-10-11T11:42:08.930Z,31.97
2022-10-11T11:44:43.724Z,32.30
2022-10-11T11:47:20.738Z,32.74
2022-10-11T11:49:56.463Z,33.10
2022-10-11T11:52:33.028Z,33.43
2022-10-11T11:55:12.237Z,33.74
2022-10-11T11:58:02.082Z,34.05
2022-10-11T12:00:54.351Z,34.36
2022-10-11T12:03:28.917Z,34.65
2022-10-11T12:06:35.947Z,34.96
2022-10-11T12:09:21.656Z,35.26
2022-10-11T12:11:56.379Z,35.53
2022-10-11T12:14:38.736Z,35.64
2022-10-11T12:17:18.366Z,35.68
2022-10-11T12:20:14.546Z,35.66
2022-10-11T12:22:58.272Z,35.89
2022-10-11T12:25:43.244Z,36.15
2022-10-11T12:29:00.721Z,36.19
2022-10-11T12:31:33.749Z,36.02
2022-10-11T12:34:38.573Z,35.91
2022-10-11T12:37:51.653Z,36.05
2022-10-11T12:40:41.920Z,36.13
2022-10-11T12:43:34.052Z,36.35
2022-10-11T12:46:41.402Z,36.56
2022-10-11T12:49:47.971Z,36.48
2022-10-11T12:52:34.662Z,36.64
2022-10-11T12:55:31.131Z,36.91
2022-10-11T12:58:28.790Z,37.24
2022-10-11T13:01:23.148Z,37.45
2022-10-11T13:04:06.467Z,37.89
2022-10-11T13:06:44.868Z,38.01
2022-10-11T13:09:22.011Z,38.00
2022-10-11T13:11:55.316Z,38.00
2022-10-11T13:14:28.617Z,37.62
2022-10-11T13:17:09.660Z,37.00
2022-10-11T13:22:22.085Z,35.33
2022-10-11T13:24:51.310Z,34.54
2022-10-11T13:27:23.041Z,34.00
2022-10-11T13:29:55.816Z,33.41
2022-10-11T13:32:28.265Z,32.81
2022-10-11T13:34:59.676Z,32.27
2022-10-11T13:37:30.895Z,31.81
2022-10-11T13:39:59.653Z,31.41
2022-10-11T13:42:32.109Z,31.05
2022-10-11T13:45:02.302Z,30.77
2022-10-11T13:47:32.980Z,30.50
2022-10-11T13:50:19.682Z,30.25
2022-10-11T13:52:58.043Z,30.06
2022-10-11T13:55:33.636Z,29.92
2022-10-11T13:58:04.473Z,29.77
2022-10-11T14:00:40.524Z,29.57
2022-10-11T14:03:21.322Z,29.41
2022-10-11T14:05:56.932Z,29.30
2022-10-11T14:08:32.676Z,29.21
2022-10-11T14:11:06.038Z,29.14
2022-10-11T14:13:38.742Z,29.01
2022-10-11T14:16:11.333Z,28.91
2022-10-11T14:18:45.703Z,28.83
2022-10-11T14:21:33.502Z,28.69
2022-10-11T14:24:06.183Z,28.53
2022-10-11T14:26:37.966Z,28.38
2022-10-11T14:29:12.631Z,28.26
2022-10-11T14:31:43.019Z,28.13
2022-10-11T14:34:19.882Z,27.98
2022-10-11T14:36:50.611Z,27.87
2022-10-11T14:39:21.649Z,27.70
2022-10-11T14:41:51.234Z,27.60
2022-10-11T14:44:20.929Z,27.49
2022-10-11T14:46:54.523Z,27.36
2022-10-11T14:49:26.120Z,27.24
2022-10-11T14:51:56.609Z,27.12
2022-10-11T14:54:27.466Z,27.01
2022-10-11T14:56:58.851Z,26.92
2022-10-11T14:59:32.710Z,26.84
2022-10-11T15:02:02.790Z,26.77
2022-10-11T15:04:31.238Z,26.69
2022-10-11T15:07:00.120Z,26.63
2022-10-11T15:09:28.546Z,26.58
2022-10-11T15:11:57.997Z,26.52
2022-10-11T15:14:27.181Z,26.44
2022-10-11T15:16:56.344Z,26.37
2022-10-11T15:19:26.729Z,26.27
2022-10-11T15:21:55.153Z,26.19
2022-10-11T15:24:23.511Z,26.09
2022-10-11T15:26:51.965Z,25.99
2022-10-11T15:29:21.992Z,25.87
2022-10-11T15:31:50.452Z,25.78
2022-10-11T15:34:18.869Z,25.69
2022-10-11T15:36:50.039Z,25.60
2022-10-11T15:39:28.352Z,25.50
2022-10-11T15:41:56.902Z,25.44
2022-10-11T15:44:25.519Z,25.35
2022-10-11T15:46:54.081Z,25.27
2022-10-11T15:49:22.447Z,25.16
2022-10-11T15:51:52.341Z,25.07
2022-10-11T15:54:20.735Z,24.97
2022-10-11T15:56:49.167Z,24.86
2022-10-11T15:59:17.566Z,24.78
2022-10-11T16:01:47.037Z,24.71
2022-10-11T16:04:15.464Z,24.64
2022-10-11T16:06:43.911Z,24.59
2022-10-11T16:09:13.629Z,24.52
2022-10-11T16:11:41.978Z,24.47
2022-10-11T16:14:10.404Z,24.45
2022-10-11T16:16:38.761Z,24.41
2022-10-11T16:19:07.152Z,24.39
2022-10-11T16:21:35.526Z,24.36
2022-10-11T16:24:04.837Z,24.34
2022-10-11T16:26:34.682Z,24.32
2022-10-11T16:29:03.055Z,24.27
2022-10-11T16:31:31.465Z,24.24
2022-10-11T16:33:59.849Z,24.21
2022-10-11T16:36:36.129Z,24.15
2022-10-11T16:39:09.447Z,24.09
2022-10-11T16:41:39.369Z,24.06
2022-10-11T16:44:08.571Z,24.02
2022-10-11T16:46:36.989Z,23.98
2022-10-11T16:49:05.868Z,23.93
2022-10-11T16:51:34.324Z,23.86
2022-10-11T16:54:02.972Z,23.81
2022-10-11T16:56:37.294Z,23.77
2022-10-11T16:59:09.942Z,23.72
2022-10-11T17:01:39.040Z,23.66
2022-10-11T17:04:08.145Z,23.63
2022-10-11T17:06:36.613Z,23.59
2022-10-11T17:09:05.893Z,23.55
2022-10-11T17:11:35.003Z,23.52
2022-10-11T17:14:05.815Z,23.50
2022-10-11T17:16:36.166Z,23.46
2022-10-11T17:19:05.013Z,23.44
2022-10-11T17:21:33.774Z,23.37
2022-10-11T17:24:02.771Z,23.29
2022-10-11T17:26:31.770Z,23.22
2022-10-11T17:29:01.464Z,23.16
2022-10-11T17:31:30.974Z,23.13
2022-10-11T17:34:02.355Z,23.11
2022-10-11T17:36:35.477Z,23.09
2022-10-11T17:39:08.945Z,23.07
2022-10-11T17:41:37.787Z,23.07
2022-10-11T17:44:07.130Z,23.04
2022-10-11T17:46:36.213Z,23.02
2022-10-11T17:49:08.741Z,22.99
2022-10-11T17:51:39.527Z,22.96
2022-10-11T17:54:12.495Z,22.90
2022-10-11T17:56:43.173Z,22.84
2022-10-11T17:59:18.355Z,22.76
2022-10-11T18:01:47.141Z,22.74
2022-10-11T18:04:18.046Z,22.71
2022-10-11T18:06:48.879Z,22.70
2022-10-11T18:09:19.331Z,22.66
2022-10-11T18:11:48.198Z,22.65
2022-10-11T18:14:18.490Z,22.62
2022-10-11T18:16:47.664Z,22.57
2022-10-11T18:19:18.445Z,22.52
2022-10-11T18:21:47.316Z,22.46
2022-10-11T18:24:18.477Z,22.39
2022-10-11T18:26:50.341Z,22.29
2022-10-11T18:29:19.497Z,22.20
2022-10-11T18:31:48.898Z,22.08
2022-10-11T18:34:18.911Z,21.98
2022-10-11T18:36:48.070Z,21.89
2022-10-11T18:39:17.888Z,21.83
2022-10-11T18:41:47.389Z,21.79
2022-10-11T18:44:17.775Z,21.75
2022-10-11T18:46:50.835Z,21.71
2022-10-11T18:49:21.046Z,21.68
2022-10-11T18:51:50.304Z,21.68
2022-10-11T18:54:21.480Z,21.69
2022-10-11T18:56:50.826Z,21.71
2022-10-11T18:59:21.661Z,21.73
2022-10-11T19:01:52.576Z,21.73
2022-10-11T19:04:24.045Z,21.76
2022-10-11T19:06:53.783Z,21.80
2022-10-11T19:09:26.643Z,21.83
2022-10-11T19:11:57.400Z,21.87
2022-10-11T19:14:28.772Z,21.90
2022-10-11T19:16:58.692Z,21.94
2022-10-11T19:19:32.041Z,21.95
2022-10-11T19:22:03.377Z,22.00
2022-10-11T19:24:33.379Z,22.03
2022-10-11T19:27:03.292Z,22.05
2022-10-11T19:29:33.131Z,22.07
2022-10-11T19:32:04.163Z,22.11
2022-10-11T19:34:35.850Z,22.12
2022-10-11T19:37:04.922Z,22.15
2022-10-11T19:39:33.807Z,22.15
2022-10-11T19:42:04.408Z,22.17
2022-10-11T19:44:37.289Z,22.18
2022-10-11T19:47:10.219Z,22.20
2022-10-11T19:49:40.564Z,22.18
2022-10-11T19:52:09.635Z,22.19
2022-10-11T19:54:38.312Z,22.18
2022-10-11T19:57:08.801Z,22.18
2022-10-11T19:59:39.705Z,22.16
2022-10-11T20:02:08.773Z,22.17
2022-10-11T20:04:52.105Z,22.15
2022-10-11T20:07:21.742Z,22.17
2022-10-11T20:09:50.477Z,22.18
2022-10-11T20:12:18.921Z,22.18
2022-10-11T20:14:47.502Z,22.18
2022-10-11T20:17:16.225Z,22.19
2022-10-11T20:19:46.391Z,22.16
2022-10-11T20:22:14.811Z,22.14
2022-10-11T20:24:43.331Z,22.13
2022-10-11T20:27:12.978Z,22.11
2022-10-11T20:29:41.381Z,22.11
2022-10-11T20:32:09.792Z,22.11
2022-10-11T20:34:39.541Z,22.10
2022-10-11T20:37:09.324Z,22.09
2022-10-11T20:39:37.688Z,22.08
2022-10-11T20:42:06.271Z,22.06
2022-10-11T20:44:34.617Z,22.05
2022-10-11T20:47:04.195Z,22.04
2022-10-11T20:49:32.770Z,22.03
2022-10-11T20:52:01.147Z,22.00
2022-10-11T20:54:34.177Z,21.97
2022-10-11T20:57:03.038Z,21.96
2022-10-11T20:59:31.386Z,21.91
2022-10-11T21:01:59.760Z,21.88
2022-10-11T21:04:28.167Z,21.84
2022-10-11T21:06:56.550Z,21.80
2022-10-11T21:09:25.083Z,21.77
2022-10-11T21:11:54.805Z,21.71
2022-10-11T21:14:23.359Z,21.66
2022-10-11T21:16:51.711Z,21.62
2022-10-11T21:19:20.039Z,21.60
2022-10-11T21:21:53.327Z,21.55
2022-10-11T21:24:22.687Z,21.51
2022-10-11T21:26:51.201Z,21.49
2022-10-11T21:29:21.008Z,21.46
2022-10-11T21:31:49.781Z,21.46
2022-10-11T21:34:18.403Z,21.44
2022-10-11T21:36:46.854Z,21.43
2022-10-11T21:39:15.286Z,21.40
2022-10-11T21:41:43.681Z,21.38
2022-10-11T21:44:12.033Z,21.36
2022-10-11T21:47:05.614Z,21.32
2022-10-11T21:49:30.417Z,21.30
2022-10-11T21:51:59.000Z,21.29
2022-10-11T21:54:27.546Z,21.29
2022-10-11T21:56:55.965Z,21.29
2022-10-11T21:59:24.396Z,21.28
2022-10-11T22:01:56.995Z,21.28
2022-10-11T22:04:29.276Z,21.28
2022-10-11T22:06:57.644Z,21.25
2022-10-11T22:09:27.792Z,21.24
2022-10-11T22:11:56.254Z,21.22
2022-10-11T22:14:25.426Z,21.21
2022-10-11T22:16:55.204Z,21.21
2022-10-11T22:19:23.882Z,21.18
2022-10-11T22:21:52.298Z,21.17
2022-10-11T22:24:20.676Z,21.15
2022-10-11T22:26:49.152Z,21.14
2022-10-11T22:29:17.526Z,21.11
2022-10-11T22:31:45.873Z,21.10
2022-10-11T22:34:15.612Z,21.08
2022-10-11T22:36:43.982Z,21.06
2022-10-11T22:39:12.344Z,21.02
2022-10-11T22:41:40.705Z,20.99
2022-10-11T22:44:09.065Z,20.97
2022-10-11T22:46:37.398Z,20.95
2022-10-11T22:49:05.963Z,20.93
2022-10-11T22:51:35.707Z,20.91
2022-10-11T22:54:04.085Z,20.90
2022-10-11T22:56:32.435Z,20.90
2022-10-11T22:59:00.990Z,20.90
2022-10-11T23:01:29.338Z,20.90
2022-10-11T23:03:57.815Z,20.91
2022-10-11T23:06:26.427Z,20.90
2022-10-11T23:08:56.402Z,20.89
2022-10-11T23:11:24.773Z,20.90
2022-10-11T23:13:53.119Z,20.92
2022-10-11T23:16:21.477Z,20.93
2022-10-11T23:18:52.719Z,20.94
2022-10-11T23:21:21.385Z,20.97
2022-10-11T23:23:49.822Z,21.01
2022-10-11T23:26:19.661Z,21.02
2022-10-11T23:28:48.152Z,21.06
2022-10-11T23:31:18.821Z,21.09
2022-10-11T23:33:47.935Z,21.10
2022-10-11T23:36:17.580Z,21.10
2022-10-11T23:38:46.377Z,21.11
2022-10-11T23:41:14.865Z,21.12
2022-10-11T23:43:44.659Z,21.13
2022-10-11T23:46:13.030Z,21.14
2022-10-11T23:48:41.483Z,21.14
2022-10-11T23:51:10.257Z,21.13
2022-10-11T23:53:39.380Z,21.14
2022-10-11T23:56:09.540Z,21.11
2022-10-11T23:58:37.897Z,21.09
